Time;durP1;ratioP1;P1;durP2;ratioP2;P2;SDS_P1;SDS_P2;PMS_P1;PMS_P2;Temp;Humidity;BMP_temperature;BMP_pressure;BME280_temperature;BME280_humidity;BME280_pressure;Samples;Min_cycle;Max_cycle;Signal;HPM_P1;HPM_P2
2023/03/04 00:01:07;;;;;;;1.02;0.68;;;;;;;;;;5055240;28;20021;-84
2023/03/04 00:03:34;;;;;;;0.55;0.45;;;;;;;;;;5047529;28;20142;-82
2023/03/04 00:06:00;;;;;;;3.72;0.90;;;;;;;;;;5051004;28;20031;-81
2023/03/04 00:08:26;;;;;;;2.85;0.75;;;;;;;;;;5049550;28;20408;-81
2023/03/04 00:10:52;;;;;;;2.90;0.80;;;;;;;;;;5056856;28;20422;-85
2023/03/04 00:13:20;;;;;;;1.27;0.70;;;;;;;;;;5050182;28;20097;-81
2023/03/04 00:15:47;;;;;;;0.77;0.50;;;;;;;;;;5046489;28;20107;-84
2023/03/04 00:18:13;;;;;;;1.02;0.70;;;;;;;;;;5051809;28;20080;-83
2023/03/04 00:20:39;;;;;;;0.63;0.57;;;;;;;;;;5052058;28;20025;-82
2023/03/04 00:23:06;;;;;;;0.90;0.40;;;;;;;;;;5049139;28;20530;-86
2023/03/04 00:25:32;;;;;;;2.45;0.63;;;;;;;;;;5053847;28;20119;-79
2023/03/04 00:27:59;;;;;;;4.40;0.82;;;;;;;;;;5055897;28;20029;-80
2023/03/04 00:30:26;;;;;;;3.58;1.05;;;;;;;;;;5059712;28;20074;-81
2023/03/04 00:32:52;;;;;;;1.63;0.57;;;;;;;;;;5060448;28;20028;-80
2023/03/04 00:35:18;;;;;;;1.02;0.70;;;;;;;;;;5051125;28;20028;-84
2023/03/04 00:37:44;;;;;;;1.40;1.08;;;;;;;;;;5070094;28;20103;-85
2023/03/04 00:40:11;;;;;;;0.90;0.70;;;;;;;;;;5064454;28;20535;-83
2023/03/04 00:42:37;;;;;;;1.27;0.70;;;;;;;;;;5054840;28;20564;-84
2023/03/04 00:45:03;;;;;;;1.05;0.50;;;;;;;;;;5046854;28;20037;-81
2023/03/04 00:47:30;;;;;;;1.08;0.70;;;;;;;;;;5053690;28;20700;-80
2023/03/04 00:49:56;;;;;;;1.05;0.65;;;;;;;;;;5053137;28;20028;-83
2023/03/04 00:52:22;;;;;;;2.47;0.60;;;;;;;;;;5051442;28;20096;-81
2023/03/04 00:54:48;;;;;;;1.88;0.80;;;;;;;;;;5059221;28;20059;-81
2023/03/04 00:57:14;;;;;;;2.15;0.77;;;;;;;;;;5053407;28;20111;-87
2023/03/04 00:59:42;;;;;;;1.80;0.75;;;;;;;;;;5056590;28;20194;-85
2023/03/04 01:02:09;;;;;;;1.00;0.60;;;;;;;;;;5052316;28;20587;-86
2023/03/04 01:04:35;;;;;;;17.42;1.40;;;;;;;;;;5056086;28;20040;-80
2023/03/04 01:07:01;;;;;;;1.38;0.70;;;;;;;;;;5052507;28;20106;-88
2023/03/04 01:09:28;;;;;;;1.83;0.63;;;;;;;;;;5060690;28;20104;-83
2023/03/04 01:11:54;;;;;;;1.80;0.70;;;;;;;;;;5052359;28;20818;-84
2023/03/04 01:14:20;;;;;;;3.35;1.35;;;;;;;;;;5056768;28;20048;-82
2023/03/04 01:16:46;;;;;;;0.77;0.68;;;;;;;;;;5047903;28;20116;-82
2023/03/04 01:19:12;;;;;;;1.75;0.88;;;;;;;;;;5045291;28;20108;-83
2023/03/04 01:21:39;;;;;;;1.10;0.82;;;;;;;;;;5053425;28;20048;-86
2023/03/04 01:24:05;;;;;;;2.95;1.10;;;;;;;;;;5057794;28;20040;-85
2023/03/04 01:26:31;;;;;;;2.38;0.75;;;;;;;;;;5057573;28;20108;-80
2023/03/04 01:28:57;;;;;;;1.90;0.90;;;;;;;;;;5047967;28;20083;-82
2023/03/04 01:31:23;;;;;;;1.52;0.80;;;;;;;;;;5052686;28;20103;-81
2023/03/04 01:33:50;;;;;;;3.00;0.90;;;;;;;;;;5052486;28;20585;-83
2023/03/04 01:36:16;;;;;;;3.33;1.10;;;;;;;;;;5069137;28;20024;-82
2023/03/04 01:38:42;;;;;;;4.45;1.00;;;;;;;;;;5055495;28;20055;-82
2023/03/04 01:41:08;;;;;;;1.48;0.80;;;;;;;;;;5069156;28;20478;-84
2023/03/04 01:43:36;;;;;;;2.72;1.20;;;;;;;;;;5060987;28;20189;-80
2023/03/04 01:46:02;;;;;;;3.33;1.23;;;;;;;;;;5069404;28;20469;-81
2023/03/04 01:48:30;;;;;;;4.57;1.23;;;;;;;;;;5063765;28;20686;-79
2023/03/04 01:50:58;;;;;;;6.55;1.25;;;;;;;;;;5058808;28;20027;-80
2023/03/04 01:53:25;;;;;;;4.97;1.63;;;;;;;;;;5057939;28;20021;-80
2023/03/04 01:55:56;;;;;;;4.90;1.20;;;;;;;;;;5060819;28;20103;-81
2023/03/04 01:58:25;;;;;;;7.22;1.30;;;;;;;;;;5060123;28;20099;-82
2023/03/04 02:00:51;;;;;;;5.35;1.25;;;;;;;;;;5058534;28;20099;-82
2023/03/04 02:03:18;;;;;;;3.97;1.25;;;;;;;;;;5064070;28;20653;-81
2023/03/04 02:05:54;;;;;;;6.32;1.45;;;;;;;;;;5058607;28;20035;-80
2023/03/04 02:08:22;;;;;;;3.13;1.08;;;;;;;;;;5056457;28;20108;-80
2023/03/04 02:10:48;;;;;;;2.63;0.93;;;;;;;;;;5060658;28;20104;-80
2023/03/04 02:13:15;;;;;;;4.38;0.80;;;;;;;;;;5057260;28;20021;-81
2023/03/04 02:15:42;;;;;;;7.88;1.40;;;;;;;;;;5058719;28;20112;-82
2023/03/04 02:18:16;;;;;;;4.88;1.10;;;;;;;;;;5057728;28;20024;-82
2023/03/04 02:20:52;;;;;;;4.22;1.00;;;;;;;;;;5058496;28;20013;-82
2023/03/04 02:23:25;;;;;;;6.32;1.80;;;;;;;;;;5057190;28;20025;-85
2023/03/04 02:26:12;;;;;;;7.95;1.52;;;;;;;;;;5058827;28;20017;-82
2023/03/04 02:28:38;;;;;;;4.88;1.30;;;;;;;;;;5053710;28;20021;-79
2023/03/04 02:31:04;;;;;;;2.58;1.05;;;;;;;;;;5062739;28;20123;-81
2023/03/04 02:33:32;;;;;;;6.25;1.40;;;;;;;;;;5061738;28;20016;-81
2023/03/04 02:35:58;;;;;;;10.48;2.58;;;;;;;;;;5061058;28;20040;-86
2023/03/04 02:38:24;;;;;;;11.98;2.58;;;;;;;;;;5059537;28;20099;-84
2023/03/04 02:40:52;;;;;;;14.80;3.65;;;;;;;;;;5061148;28;20033;-82
2023/03/04 02:43:18;;;;;;;12.25;3.15;;;;;;;;;;5067880;28;20070;-79
2023/03/04 02:45:46;;;;;;;14.02;3.50;;;;;;;;;;5058123;28;20021;-81
2023/03/04 02:48:12;;;;;;;9.43;2.08;;;;;;;;;;5063498;28;20032;-80
2023/03/04 02:50:41;;;;;;;16.17;3.47;;;;;;;;;;5061159;28;20052;-81
2023/03/04 02:53:07;;;;;;;15.45;2.97;;;;;;;;;;5066277;28;20352;-79
2023/03/04 02:55:34;;;;;;;13.20;2.60;;;;;;;;;;5057759;28;20564;-81
2023/03/04 02:58:00;;;;;;;18.30;3.42;;;;;;;;;;5057956;28;20052;-80
2023/03/04 03:00:27;;;;;;;8.38;2.25;;;;;;;;;;5061042;28;20122;-80
2023/03/04 03:02:55;;;;;;;11.15;3.58;;;;;;;;;;5058529;28;20033;-81
2023/03/04 03:05:22;;;;;;;12.25;3.58;;;;;;;;;;5058846;28;20636;-82
2023/03/04 03:07:48;;;;;;;12.05;3.35;;;;;;;;;;5064326;28;20036;-79
2023/03/04 03:10:14;;;;;;;13.20;3.50;;;;;;;;;;5060481;28;20092;-80
2023/03/04 03:12:40;;;;;;;6.40;2.40;;;;;;;;;;5068652;28;20025;-83
2023/03/04 03:15:07;;;;;;;2.75;1.40;;;;;;;;;;5061131;28;20040;-80
2023/03/04 03:17:33;;;;;;;3.15;0.90;;;;;;;;;;5075019;28;20099;-82
2023/03/04 03:19:59;;;;;;;1.67;0.88;;;;;;;;;;5059858;28;20025;-81
2023/03/04 03:22:25;;;;;;;6.07;0.98;;;;;;;;;;5062106;28;20025;-82
2023/03/04 03:24:52;;;;;;;4.63;1.10;;;;;;;;;;5054563;28;20201;-79
2023/03/04 03:27:18;;;;;;;3.05;1.27;;;;;;;;;;5063172;28;20086;-82
2023/03/04 03:29:44;;;;;;;5.60;0.98;;;;;;;;;;5055674;28;20019;-80
2023/03/04 03:32:10;;;;;;;1.48;1.00;;;;;;;;;;5061934;28;20017;-81
2023/03/04 03:34:37;;;;;;;2.55;0.70;;;;;;;;;;5054140;28;20105;-79
2023/03/04 03:37:03;;;;;;;0.88;0.60;;;;;;;;;;5072720;28;20516;-81
2023/03/04 03:39:29;;;;;;;1.00;0.70;;;;;;;;;;5063496;28;20187;-80
2023/03/04 03:41:55;;;;;;;2.20;0.70;;;;;;;;;;5063617;28;20021;-80
2023/03/04 03:44:21;;;;;;;1.33;0.63;;;;;;;;;;5054668;28;20116;-80
2023/03/04 03:46:47;;;;;;;1.05;0.68;;;;;;;;;;5055614;28;20503;-81
2023/03/04 03:49:16;;;;;;;3.55;0.70;;;;;;;;;;5060344;28;20111;-85
2023/03/04 03:51:42;;;;;;;4.22;0.70;;;;;;;;;;5062531;28;20023;-82
2023/03/04 03:54:09;;;;;;;0.98;0.52;;;;;;;;;;5049838;28;20029;-87
2023/03/04 03:56:35;;;;;;;0.82;0.60;;;;;;;;;;5049523;28;20109;-83
2023/03/04 03:59:02;;;;;;;1.20;0.68;;;;;;;;;;5060028;28;20563;-84
2023/03/04 04:01:28;;;;;;;1.00;0.70;;;;;;;;;;5049529;28;20036;-83
2023/03/04 04:03:54;;;;;;;1.27;0.80;;;;;;;;;;5051894;28;20041;-82
2023/03/04 04:06:20;;;;;;;1.67;0.80;;;;;;;;;;5063426;28;20111;-87
2023/03/04 04:08:47;;;;;;;1.00;0.73;;;;;;;;;;5048708;28;20107;-85
2023/03/04 04:11:13;;;;;;;2.22;0.60;;;;;;;;;;5052419;28;20017;-82
2023/03/04 04:13:39;;;;;;;2.53;0.85;;;;;;;;;;5059273;28;20314;-83
2023/03/04 04:16:06;;;;;;;1.23;0.73;;;;;;;;;;5052866;28;20025;-83
2023/03/04 04:18:32;;;;;;;1.50;0.70;;;;;;;;;;5048870;28;20446;-84
2023/03/04 04:20:58;;;;;;;0.95;0.65;;;;;;;;;;5057920;28;20025;-82
2023/03/04 04:23:24;;;;;;;6.05;0.90;;;;;;;;;;5049022;28;20108;-81
2023/03/04 04:25:51;;;;;;;1.02;0.70;;;;;;;;;;5051412;28;20048;-83
2023/03/04 04:28:17;;;;;;;1.63;0.82;;;;;;;;;;5046819;28;20206;-82
2023/03/04 04:30:43;;;;;;;1.85;0.70;;;;;;;;;;5049813;28;20025;-84
2023/03/04 04:33:09;;;;;;;1.63;0.82;;;;;;;;;;5058827;28;20037;-84
2023/03/04 04:35:37;;;;;;;2.38;0.90;;;;;;;;;;5068704;28;20340;-84
2023/03/04 04:38:04;;;;;;;1.10;0.63;;;;;;;;;;5056966;28;20021;-86
2023/03/04 04:40:30;;;;;;;0.95;0.77;;;;;;;;;;5050820;28;20078;-87
2023/03/04 04:42:56;;;;;;;1.73;0.80;;;;;;;;;;5060517;28;20024;-84
2023/03/04 04:45:23;;;;;;;6.82;0.93;;;;;;;;;;5045803;28;20020;-84
2023/03/04 04:47:50;;;;;;;1.63;0.80;;;;;;;;;;5047652;28;20401;-86
2023/03/04 04:50:16;;;;;;;2.42;0.98;;;;;;;;;;5063542;28;20033;-86
2023/03/04 04:52:43;;;;;;;2.00;0.85;;;;;;;;;;5046199;28;20032;-88
2023/03/04 04:55:09;;;;;;;1.30;0.90;;;;;;;;;;5050339;28;20028;-84
2023/03/04 04:57:36;;;;;;;1.45;1.00;;;;;;;;;;5058267;28;20571;-86
2023/03/04 05:00:03;;;;;;;1.90;1.00;;;;;;;;;;5045541;28;20032;-83
2023/03/04 05:02:30;;;;;;;4.63;1.10;;;;;;;;;;5049804;28;20362;-85
2023/03/04 05:04:56;;;;;;;4.38;1.10;;;;;;;;;;5050505;28;20052;-81
2023/03/04 05:07:22;;;;;;;0.90;0.80;;;;;;;;;;5051073;28;20025;-86
2023/03/04 05:09:51;;;;;;;3.05;0.80;;;;;;;;;;5053989;28;20250;-89
2023/03/04 05:12:17;;;;;;;2.00;0.80;;;;;;;;;;5048489;28;20025;-85
2023/03/04 05:14:43;;;;;;;3.25;0.90;;;;;;;;;;5049126;28;20055;-84
2023/03/04 05:17:10;;;;;;;1.73;0.90;;;;;;;;;;5049478;28;20815;-85
2023/03/04 05:19:36;;;;;;;2.10;0.90;;;;;;;;;;5053055;28;20126;-86
2023/03/04 05:22:02;;;;;;;2.58;0.63;;;;;;;;;;5048976;28;20063;-86
2023/03/04 05:24:29;;;;;;;1.80;0.77;;;;;;;;;;5059358;28;20032;-82
2023/03/04 05:26:55;;;;;;;1.77;0.90;;;;;;;;;;5049396;28;20028;-84
2023/03/04 05:29:21;;;;;;;1.98;1.20;;;;;;;;;;5044270;28;20044;-84
2023/03/04 05:31:47;;;;;;;1.73;0.80;;;;;;;;;;5048292;28;20108;-86
2023/03/04 05:34:14;;;;;;;2.20;0.90;;;;;;;;;;5048239;28;20505;-84
2023/03/04 05:36:40;;;;;;;1.70;0.82;;;;;;;;;;5056010;28;20033;-82
2023/03/04 05:39:06;;;;;;;1.77;0.90;;;;;;;;;;5043225;28;20296;-82
2023/03/04 05:41:32;;;;;;;1.85;1.00;;;;;;;;;;5051449;28;20130;-85
2023/03/04 05:43:59;;;;;;;0.98;0.80;;;;;;;;;;5051698;28;20196;-85
2023/03/04 05:46:25;;;;;;;6.38;0.90;;;;;;;;;;5050348;28;20512;-86
2023/03/04 05:48:52;;;;;;;2.83;1.10;;;;;;;;;;5051971;28;20139;-82
2023/03/04 05:51:18;;;;;;;3.90;0.90;;;;;;;;;;5044064;28;20021;-86
2023/03/04 05:53:45;;;;;;;0.93;0.70;;;;;;;;;;5046097;28;20104;-84
2023/03/04 05:56:13;;;;;;;1.80;0.82;;;;;;;;;;5048962;28;20017;-87
2023/03/04 05:58:39;;;;;;;3.08;0.82;;;;;;;;;;5046851;28;20017;-86
2023/03/04 06:01:06;;;;;;;2.03;0.85;;;;;;;;;;5048892;28;20111;-84
2023/03/04 06:03:32;;;;;;;1.90;0.93;;;;;;;;;;5053570;28;20040;-86
2023/03/04 06:05:59;;;;;;;0.80;0.70;;;;;;;;;;5044849;28;20106;-82
2023/03/04 06:08:26;;;;;;;1.45;1.00;;;;;;;;;;5048453;28;20096;-85
2023/03/04 06:10:53;;;;;;;1.90;0.73;;;;;;;;;;5050506;28;20058;-83
2023/03/04 06:13:19;;;;;;;3.95;1.05;;;;;;;;;;5050154;28;20021;-88
2023/03/04 06:15:47;;;;;;;2.17;0.80;;;;;;;;;;5053332;28;20473;-82
2023/03/04 06:18:13;;;;;;;1.35;0.95;;;;;;;;;;5049872;28;20317;-82
2023/03/04 06:20:40;;;;;;;1.10;0.80;;;;;;;;;;5060245;28;20028;-85
2023/03/04 06:23:06;;;;;;;2.30;1.13;;;;;;;;;;5048639;28;20033;-86
2023/03/04 06:25:32;;;;;;;3.80;1.65;;;;;;;;;;5053290;28;20116;-85
2023/03/04 06:27:58;;;;;;;2.15;1.10;;;;;;;;;;5045449;28;20549;-82
2023/03/04 06:30:24;;;;;;;1.20;0.80;;;;;;;;;;5048640;28;20111;-82
2023/03/04 06:32:51;;;;;;;2.08;1.00;;;;;;;;;;5048088;28;20083;-81
2023/03/04 06:35:17;;;;;;;1.88;1.00;;;;;;;;;;5042634;28;20273;-82
2023/03/04 06:37:43;;;;;;;2.08;0.90;;;;;;;;;;5049023;28;20020;-82
2023/03/04 06:40:10;;;;;;;1.75;1.02;;;;;;;;;;5047591;28;20542;-82
2023/03/04 06:42:37;;;;;;;1.75;1.05;;;;;;;;;;5043890;28;20024;-82
2023/03/04 06:45:04;;;;;;;2.33;0.98;;;;;;;;;;5054922;28;20119;-81
2023/03/04 06:47:30;;;;;;;1.42;0.88;;;;;;;;;;5043308;28;20112;-81
2023/03/04 06:49:56;;;;;;;0.80;0.60;;;;;;;;;;5047027;28;20276;-83
2023/03/04 06:52:22;;;;;;;1.83;1.00;;;;;;;;;;5050922;28;20139;-82
2023/03/04 06:54:48;;;;;;;2.60;0.90;;;;;;;;;;5054187;28;20071;-82
2023/03/04 06:57:15;;;;;;;1.10;0.75;;;;;;;;;;5056286;28;20021;-81
2023/03/04 06:59:41;;;;;;;2.42;1.00;;;;;;;;;;5049032;28;20115;-81
2023/03/04 07:02:10;;;;;;;0.90;0.77;;;;;;;;;;5046953;28;20223;-83
2023/03/04 07:04:36;;;;;;;2.75;1.00;;;;;;;;;;5043993;28;20400;-81
2023/03/04 07:07:02;;;;;;;1.45;0.90;;;;;;;;;;5051320;28;20115;-80
2023/03/04 07:09:29;;;;;;;1.02;0.77;;;;;;;;;;5046114;28;20036;-82
2023/03/04 07:11:55;;;;;;;2.85;0.90;;;;;;;;;;5048352;28;20045;-79
2023/03/04 07:14:21;;;;;;;1.55;0.90;;;;;;;;;;5048701;28;20044;-82
2023/03/04 07:16:47;;;;;;;1.30;0.90;;;;;;;;;;5045127;28;20079;-80
2023/03/04 07:19:13;;;;;;;2.85;1.00;;;;;;;;;;5047729;28;20035;-80
2023/03/04 07:21:40;;;;;;;1.48;1.00;;;;;;;;;;5052858;28;20035;-81
2023/03/04 07:24:06;;;;;;;3.10;1.10;;;;;;;;;;5047738;28;20068;-81
2023/03/04 07:26:32;;;;;;;3.97;1.15;;;;;;;;;;5050057;28;20493;-80
2023/03/04 07:28:58;;;;;;;1.67;1.15;;;;;;;;;;5049642;28;20098;-80
2023/03/04 07:31:28;;;;;;;1.50;1.20;;;;;;;;;;5051540;28;20119;-81
2023/03/04 07:33:56;;;;;;;1.55;1.15;;;;;;;;;;5044681;28;20488;-81
2023/03/04 07:36:22;;;;;;;1.35;0.93;;;;;;;;;;5047295;28;20031;-82
2023/03/04 07:38:49;;;;;;;3.30;1.05;;;;;;;;;;5049747;28;20075;-82
2023/03/04 07:41:16;;;;;;;1.40;1.20;;;;;;;;;;5050040;28;20381;-76
2023/03/04 07:43:42;;;;;;;1.35;1.00;;;;;;;;;;5047473;28;20040;-80
2023/03/04 07:46:08;;;;;;;3.42;1.30;;;;;;;;;;5055292;28;20021;-85
2023/03/04 07:48:36;;;;;;;2.97;1.00;;;;;;;;;;5048115;28;20537;-81
2023/03/04 07:51:12;;;;;;;1.88;1.25;;;;;;;;;;5044642;28;20298;-81
2023/03/04 07:53:39;;;;;;;3.92;1.10;;;;;;;;;;5053847;28;20029;-81
2023/03/04 07:56:06;;;;;;;3.15;1.35;;;;;;;;;;5051509;28;20119;-81
2023/03/04 07:58:32;;;;;;;3.72;1.52;;;;;;;;;;5052750;28;20033;-80
2023/03/04 08:00:58;;;;;;;1.88;1.00;;;;;;;;;;5046993;28;20200;-80
2023/03/04 08:03:25;;;;;;;2.25;1.33;;;;;;;;;;5049607;28;20119;-80
2023/03/04 08:05:51;;;;;;;3.40;1.50;;;;;;;;;;5049387;28;20054;-81
2023/03/04 08:08:17;;;;;;;1.83;1.20;;;;;;;;;;5047383;28;20031;-80
2023/03/04 08:10:44;;;;;;;2.13;1.40;;;;;;;;;;5049044;28;20368;-80
2023/03/04 08:13:10;;;;;;;2.88;1.30;;;;;;;;;;5056047;28;20032;-81
2023/03/04 08:15:39;;;;;;;2.58;1.60;;;;;;;;;;5049019;28;20115;-80
2023/03/04 08:18:05;;;;;;;3.42;1.60;;;;;;;;;;5044627;28;20104;-80
2023/03/04 08:20:32;;;;;;;3.30;1.40;;;;;;;;;;5057952;28;20017;-80
2023/03/04 08:22:58;;;;;;;3.67;1.52;;;;;;;;;;5051408;28;20161;-80
2023/03/04 08:25:24;;;;;;;4.78;1.55;;;;;;;;;;5045591;28;20488;-80
2023/03/04 08:27:50;;;;;;;3.47;1.60;;;;;;;;;;5059811;28;20100;-79
2023/03/04 08:30:16;;;;;;;1.67;1.40;;;;;;;;;;5047173;28;20124;-80
2023/03/04 08:32:43;;;;;;;2.65;1.90;;;;;;;;;;5050263;28;20096;-79
2023/03/04 08:35:09;;;;;;;1.67;1.23;;;;;;;;;;5051745;28;20168;-79
2023/03/04 08:37:35;;;;;;;2.08;1.55;;;;;;;;;;5046865;28;20459;-80
2023/03/04 08:40:01;;;;;;;2.65;1.52;;;;;;;;;;5051145;28;20042;-80
2023/03/04 08:42:28;;;;;;;2.30;1.73;;;;;;;;;;5052867;28;20087;-79
2023/03/04 08:44:54;;;;;;;3.58;1.65;;;;;;;;;;5048723;28;20303;-80
2023/03/04 08:47:20;;;;;;;3.70;1.50;;;;;;;;;;5049159;28;20063;-80
2023/03/04 08:49:47;;;;;;;4.05;1.92;;;;;;;;;;5046827;28;20035;-80
2023/03/04 08:52:13;;;;;;;2.25;1.42;;;;;;;;;;5049420;28;20024;-80
2023/03/04 08:54:39;;;;;;;3.70;1.60;;;;;;;;;;5051039;28;20393;-80
2023/03/04 08:57:06;;;;;;;2.63;1.50;;;;;;;;;;5054844;28;20135;-80
2023/03/04 08:59:32;;;;;;;3.53;1.52;;;;;;;;;;5047809;28;20023;-79
2023/03/04 09:01:59;;;;;;;2.40;1.60;;;;;;;;;;5055146;28;20110;-79
2023/03/04 09:04:25;;;;;;;4.00;2.00;;;;;;;;;;5052732;28;20290;-79
2023/03/04 09:06:51;;;;;;;3.85;1.88;;;;;;;;;;5048443;28;20163;-80
2023/03/04 09:09:18;;;;;;;2.25;1.30;;;;;;;;;;5050903;28;20135;-80
2023/03/04 09:11:44;;;;;;;3.10;1.95;;;;;;;;;;5051187;28;20190;-79
2023/03/04 09:14:10;;;;;;;6.65;2.03;;;;;;;;;;5047334;28;20054;-80
2023/03/04 09:16:36;;;;;;;2.65;1.85;;;;;;;;;;5042570;28;20032;-80
2023/03/04 09:19:03;;;;;;;2.28;1.67;;;;;;;;;;5048137;28;20047;-80
2023/03/04 09:21:29;;;;;;;2.38;1.33;;;;;;;;;;5045344;28;20100;-80
2023/03/04 09:23:55;;;;;;;3.33;1.83;;;;;;;;;;5046928;28;20040;-80
2023/03/04 09:26:25;;;;;;;4.28;1.90;;;;;;;;;;5050509;28;20468;-80
2023/03/04 09:28:53;;;;;;;3.53;2.22;;;;;;;;;;5053563;28;20036;-79
2023/03/04 09:31:19;;;;;;;5.38;2.38;;;;;;;;;;5049275;28;20108;-79
2023/03/04 09:33:45;;;;;;;6.32;2.30;;;;;;;;;;5047950;28;20113;-80
2023/03/04 09:36:12;;;;;;;5.53;2.60;;;;;;;;;;5052955;28;20417;-79
2023/03/04 09:38:39;;;;;;;2.90;2.10;;;;;;;;;;5054838;28;20016;-79
2023/03/04 09:41:10;;;;;;;4.07;2.47;;;;;;;;;;5056064;28;20027;-79
2023/03/04 09:43:38;;;;;;;7.85;2.85;;;;;;;;;;5053213;28;20044;-80
2023/03/04 09:46:07;;;;;;;4.82;3.60;;;;;;;;;;5053100;28;20108;-80
2023/03/04 09:48:45;;;;;;;5.07;3.45;;;;;;;;;;5053300;28;20497;-79
2023/03/04 09:51:11;;;;;;;7.70;4.10;;;;;;;;;;5047896;28;20066;-79
2023/03/04 09:53:47;;;;;;;8.35;3.88;;;;;;;;;;5045425;28;20199;-79
2023/03/04 09:56:14;;;;;;;5.78;4.03;;;;;;;;;;5051547;28;20017;-79
2023/03/04 09:58:44;;;;;;;6.10;3.33;;;;;;;;;;5051084;28;20382;-79
2023/03/04 10:01:10;;;;;;;3.78;3.03;;;;;;;;;;5048684;28;20470;-79
2023/03/04 10:03:37;;;;;;;7.35;3.97;;;;;;;;;;5050797;28;20040;-80
2023/03/04 10:06:09;;;;;;;6.40;4.13;;;;;;;;;;5046888;28;20112;-79
2023/03/04 10:08:41;;;;;;;5.95;3.10;;;;;;;;;;5045903;28;20504;-79
2023/03/04 10:11:20;;;;;;;3.92;2.42;;;;;;;;;;5046734;28;20464;-79
2023/03/04 10:14:02;;;;;;;6.75;2.72;;;;;;;;;;5048161;28;20044;-80
2023/03/04 10:16:35;;;;;;;4.43;2.47;;;;;;;;;;5057095;28;20031;-79
2023/03/04 10:19:09;;;;;;;2.60;2.13;;;;;;;;;;5047530;28;20063;-79
2023/03/04 10:21:38;;;;;;;2.97;2.30;;;;;;;;;;5046172;28;20104;-81
2023/03/04 10:24:31;;;;;;;6.35;2.83;;;;;;;;;;5047253;28;20125;-79
2023/03/04 10:27:09;;;;;;;3.72;2.63;;;;;;;;;;5053096;28;20469;-80
2023/03/04 10:29:36;;;;;;;4.32;2.90;;;;;;;;;;5056024;28;20254;-78
2023/03/04 10:32:02;;;;;;;6.45;3.30;;;;;;;;;;5050969;28;20063;-79
2023/03/04 10:34:28;;;;;;;7.20;2.70;;;;;;;;;;5045669;28;20480;-80
2023/03/04 10:37:02;;;;;;;10.05;3.15;;;;;;;;;;5046884;28;20116;-81
2023/03/04 10:39:38;;;;;;;9.38;3.20;;;;;;;;;;5050811;28;20033;-80
2023/03/04 10:42:09;;;;;;;4.57;2.90;;;;;;;;;;5045198;28;20094;-83
2023/03/04 10:44:37;;;;;;;10.02;3.38;;;;;;;;;;5044591;28;20090;-78
2023/03/04 10:47:15;;;;;;;4.95;2.85;;;;;;;;;;5042620;28;20025;-78
2023/03/04 10:49:54;;;;;;;8.30;2.67;;;;;;;;;;5042117;28;20029;-79
2023/03/04 10:52:32;;;;;;;4.15;2.30;;;;;;;;;;5046054;28;20035;-80
2023/03/04 10:55:03;;;;;;;5.90;2.22;;;;;;;;;;5045267;28;20033;-79
2023/03/04 10:57:29;;;;;;;4.28;2.47;;;;;;;;;;5046477;28;20032;-79
2023/03/04 11:00:01;;;;;;;5.38;2.72;;;;;;;;;;5048108;28;20040;-79
2023/03/04 11:02:34;;;;;;;3.78;2.30;;;;;;;;;;5052643;28;20027;-79
2023/03/04 11:05:09;;;;;;;5.57;2.60;;;;;;;;;;5054789;28;20087;-84
2023/03/04 11:07:40;;;;;;;8.45;4.70;;;;;;;;;;5059559;28;20096;-80
2023/03/04 11:10:10;;;;;;;6.35;4.25;;;;;;;;;;5053694;28;20163;-79
2023/03/04 11:12:36;;;;;;;4.95;3.42;;;;;;;;;;5049008;28;20362;-80
2023/03/04 11:15:03;;;;;;;4.40;3.10;;;;;;;;;;5044956;28;20107;-79
2023/03/04 11:17:41;;;;;;;4.75;2.70;;;;;;;;;;5057859;28;20020;-80
2023/03/04 11:20:14;;;;;;;3.20;2.35;;;;;;;;;;5051604;28;20469;-80
2023/03/04 11:22:42;;;;;;;2.28;1.75;;;;;;;;;;5050269;28;20072;-79
2023/03/04 11:25:20;;;;;;;4.93;2.00;;;;;;;;;;5051236;28;20112;-80
2023/03/04 11:27:48;;;;;;;3.22;1.88;;;;;;;;;;5054584;28;20021;-80
2023/03/04 11:30:36;;;;;;;8.27;3.53;;;;;;;;;;5056387;28;20028;-80
2023/03/04 11:33:17;;;;;;;8.25;2.83;;;;;;;;;;5057924;28;20020;-80
2023/03/04 11:36:01;;;;;;;6.03;2.30;;;;;;;;;;5049886;28;20031;-81
2023/03/04 11:38:33;;;;;;;3.63;1.65;;;;;;;;;;5051179;28;20032;-80
2023/03/04 11:41:01;;;;;;;4.18;1.77;;;;;;;;;;5062526;28;20112;-80
2023/03/04 11:43:37;;;;;;;7.65;2.10;;;;;;;;;;5058885;28;20039;-80
2023/03/04 11:46:15;;;;;;;4.78;2.10;;;;;;;;;;5060533;28;20104;-80
2023/03/04 11:48:45;;;;;;;4.97;2.17;;;;;;;;;;5061976;28;20021;-80
2023/03/04 11:51:18;;;;;;;2.25;1.80;;;;;;;;;;5049562;28;20096;-80
2023/03/04 11:54:02;;;;;;;3.63;2.00;;;;;;;;;;5060107;28;20016;-80
2023/03/04 11:56:37;;;;;;;2.05;1.85;;;;;;;;;;5047243;28;20013;-80
2023/03/04 11:59:03;;;;;;;2.33;1.75;;;;;;;;;;5062508;28;20024;-80
2023/03/04 12:01:38;;;;;;;6.32;1.92;;;;;;;;;;5057172;28;20017;-79
2023/03/04 12:04:11;;;;;;;2.63;1.73;;;;;;;;;;5058597;28;20147;-79
2023/03/04 12:06:52;;;;;;;3.67;1.83;;;;;;;;;;5057176;28;20385;-80
2023/03/04 12:09:37;;;;;;;11.25;3.72;;;;;;;;;;5057759;28;20083;-79
2023/03/04 12:12:14;;;;;;;23.75;7.07;;;;;;;;;;5053910;28;20400;-80
2023/03/04 12:14:43;;;;;;;25.02;6.78;;;;;;;;;;5059989;28;20048;-80
2023/03/04 12:17:19;;;;;;;16.23;7.03;;;;;;;;;;5057083;28;20080;-79
2023/03/04 12:20:20;;;;;;;14.25;5.97;;;;;;;;;;5057217;28;20016;-80
2023/03/04 12:23:07;;;;;;;14.40;6.45;;;;;;;;;;4997714;28;20352;-79
2023/03/04 12:25:45;;;;;;;16.83;6.68;;;;;;;;;;5050201;28;20048;-79
2023/03/04 12:28:14;;;;;;;18.20;6.95;;;;;;;;;;5056347;28;20021;-79
2023/03/04 12:30:41;;;;;;;14.25;5.95;;;;;;;;;;5059627;28;20166;-79
2023/03/04 12:33:19;;;;;;;17.58;5.60;;;;;;;;;;5053237;28;20029;-79
2023/03/04 12:35:56;;;;;;;20.27;6.43;;;;;;;;;;5064237;28;20029;-79
2023/03/04 12:38:28;;;;;;;14.18;5.32;;;;;;;;;;5055590;28;20396;-79
2023/03/04 12:40:59;;;;;;;7.35;3.08;;;;;;;;;;5056420;28;20206;-79
2023/03/04 12:43:30;;;;;;;6.45;2.92;;;;;;;;;;5059535;28;20229;-80
2023/03/04 12:46:18;;;;;;;7.63;2.90;;;;;;;;;;5054109;28;20102;-79
2023/03/04 12:48:50;;;;;;;3.78;2.50;;;;;;;;;;5056470;28;20024;-79
2023/03/04 12:51:16;;;;;;;;;;;;;;;;;;5057434;28;20025;-79
2023/03/04 12:53:42;;;;;;;4.05;2.30;;;;;;;;;;5060169;28;19908;-79
2023/03/04 12:56:19;;;;;;;2.60;1.77;;;;;;;;;;5054055;28;20059;-79
2023/03/04 12:58:45;;;;;;;2.80;1.60;;;;;;;;;;5057837;28;20024;-80
2023/03/04 13:01:14;;;;;;;3.28;2.00;;;;;;;;;;5052775;28;20120;-79
2023/03/04 13:03:51;;;;;;;5.50;1.90;;;;;;;;;;5059481;28;20067;-80
2023/03/04 13:06:30;;;;;;;3.70;1.58;;;;;;;;;;5051596;28;20107;-80
2023/03/04 13:08:59;;;;;;;3.13;2.13;;;;;;;;;;5058768;28;20025;-78
2023/03/04 13:11:26;;;;;;;2.47;1.48;;;;;;;;;;5057834;28;20036;-80
2023/03/04 13:14:03;;;;;;;4.43;2.03;;;;;;;;;;5053902;28;20040;-79
2023/03/04 13:16:32;;;;;;;2.58;1.60;;;;;;;;;;5060461;28;20035;-80
2023/03/04 13:18:59;;;;;;;3.28;2.10;;;;;;;;;;5054114;28;20025;-79
2023/03/04 13:21:26;;;;;;;4.35;1.83;;;;;;;;;;5053611;28;20021;-79
2023/03/04 13:23:53;;;;;;;6.00;2.00;;;;;;;;;;5056235;28;20040;-80
2023/03/04 13:26:20;;;;;;;2.75;2.05;;;;;;;;;;5052219;28;20021;-79
2023/03/04 13:28:51;;;;;;;8.40;2.38;;;;;;;;;;5051492;28;20093;-80
2023/03/04 13:31:26;;;;;;;4.57;2.47;;;;;;;;;;5058791;28;20100;-79
2023/03/04 13:33:56;;;;;;;2.50;1.50;;;;;;;;;;5056886;28;20043;-79
2023/03/04 13:36:26;;;;;;;5.43;1.80;;;;;;;;;;5063441;28;20266;-79
2023/03/04 13:39:04;;;;;;;3.05;1.60;;;;;;;;;;5059418;28;20170;-80
2023/03/04 13:41:32;;;;;;;3.30;1.48;;;;;;;;;;5059807;28;20017;-79
2023/03/04 13:44:02;;;;;;;2.63;1.95;;;;;;;;;;5061514;28;20033;-79
2023/03/04 13:46:29;;;;;;;6.60;1.83;;;;;;;;;;5057342;28;20557;-79
2023/03/04 13:48:55;;;;;;;2.22;1.60;;;;;;;;;;5053701;28;20032;-79
2023/03/04 13:51:40;;;;;;;2.00;1.70;;;;;;;;;;5057016;28;20100;-79
2023/03/04 13:54:15;;;;;;;4.50;2.78;;;;;;;;;;5054488;28;20044;-79
2023/03/04 13:56:41;;;;;;;3.42;2.67;;;;;;;;;;5057937;28;20027;-81
2023/03/04 13:59:08;;;;;;;2.83;1.92;;;;;;;;;;5057347;28;20103;-79
2023/03/04 14:01:43;;;;;;;2.97;1.90;;;;;;;;;;5053964;28;20050;-79
2023/03/04 14:04:21;;;;;;;3.13;2.13;;;;;;;;;;5058111;28;20063;-79
2023/03/04 14:06:52;;;;;;;1.40;1.25;;;;;;;;;;5047588;28;20115;-80
2023/03/04 14:09:27;;;;;;;2.58;1.50;;;;;;;;;;5053239;28;20399;-79
2023/03/04 14:11:55;;;;;;;2.28;1.40;;;;;;;;;;5055772;28;20020;-80
2023/03/04 14:14:27;;;;;;;2.83;1.80;;;;;;;;;;5055263;28;20044;-78
2023/03/04 14:16:58;;;;;;;2.50;1.77;;;;;;;;;;5054416;28;20116;-80
2023/03/04 14:19:29;;;;;;;2.90;1.73;;;;;;;;;;5060673;28;20020;-79
2023/03/04 14:21:55;;;;;;;3.42;1.63;;;;;;;;;;5055534;28;20028;-78
2023/03/04 14:24:23;;;;;;;1.92;1.60;;;;;;;;;;5052382;28;21364;-79
2023/03/04 14:26:50;;;;;;;2.45;1.60;;;;;;;;;;5058784;28;20028;-78
2023/03/04 14:29:29;;;;;;;2.40;1.40;;;;;;;;;;5056680;28;20374;-80
2023/03/04 14:31:56;;;;;;;2.58;1.67;;;;;;;;;;5057722;28;20055;-80
2023/03/04 14:34:34;;;;;;;2.85;1.55;;;;;;;;;;5054951;28;20048;-80
2023/03/04 14:37:02;;;;;;;2.25;1.50;;;;;;;;;;5051591;28;20031;-80
2023/03/04 14:39:34;;;;;;;2.55;1.70;;;;;;;;;;5055487;28;20099;-80
2023/03/04 14:42:10;;;;;;;5.07;2.00;;;;;;;;;;5055277;28;20091;-80
2023/03/04 14:44:44;;;;;;;3.83;1.88;;;;;;;;;;5058169;28;20503;-81
2023/03/04 14:47:16;;;;;;;2.80;1.60;;;;;;;;;;5055753;28;20013;-80
2023/03/04 14:49:42;;;;;;;2.28;1.73;;;;;;;;;;5054603;28;20091;-80
2023/03/04 14:52:33;;;;;;;4.00;1.80;;;;;;;;;;5055545;28;20096;-80